CheckWX is a tool to help pilots better visualize weather data.  It is not intended as a substitute for an official pre-flight weather briefing.

06:57:01 UTC

KBHK METAR
Baker Municipal Airport
Baker, Montana, USA
Current

1 hour ago

KBHK 190551Z AUTO 12006KT 10SM CLR 09/07 A2995 RMK AO2 SLP133 T00940067 10222 20089 56002
Observed
Sep-19 @ 05:51 UTC
Wind
  • 120° at 6 KTS
Visibility
10 SM
Flight Rules
VFR
Cloud Levels
  • Clear skies
Temperature
C / 48°F
Dewpoint
C / 45°F
Humidity
87%
Altimeter
29.95" Hg
Pressure
1014.22 hPa
Previous

2 hours ago

KBHK 190451Z AUTO 13005KT 10SM CLR 10/07 A2996 RMK AO2 SLP136 T01000072
Observed
Sep-19 @ 04:51 UTC
Wind
  • 130° at 5 KTS
Visibility
10 SM
Flight Rules
VFR
Cloud Levels
  • Clear skies
Temperature
10°C / 50°F
Dewpoint
C / 45°F
Humidity
82%
Altimeter
29.96" Hg
Pressure
1014.52 hPa
Previous

3 hours ago

KBHK 190351Z AUTO 13006KT 10SM CLR 10/07 A2995 RMK AO2 SLP137 T01000072
Observed
Sep-19 @ 03:51 UTC
Wind
  • 130° at 6 KTS
Visibility
10 SM
Flight Rules
VFR
Cloud Levels
  • Clear skies
Temperature
10°C / 50°F
Dewpoint
C / 45°F
Humidity
82%
Altimeter
29.95" Hg
Pressure
1014.22 hPa